sensor_id;sensor_type;location;lat;lon;timestamp;P1;durP1;ratioP1;P2;durP2;ratioP2
6251;SDS011;3159;52.414;9.784;2023-02-28T00:00:49;10.27;;;6.20;;
6251;SDS011;3159;52.414;9.784;2023-02-28T00:03:16;7.40;;;5.63;;
6251;SDS011;3159;52.414;9.784;2023-02-28T00:05:43;9.80;;;6.07;;
6251;SDS011;3159;52.414;9.784;2023-02-28T00:08:10;7.43;;;5.73;;
6251;SDS011;3159;52.414;9.784;2023-02-28T00:10:39;9.00;;;5.53;;
6251;SDS011;3159;52.414;9.784;2023-02-28T00:13:06;8.20;;;5.83;;
6251;SDS011;3159;52.414;9.784;2023-02-28T00:15:33;7.67;;;5.97;;
6251;SDS011;3159;52.414;9.784;2023-02-28T00:18:00;9.77;;;6.37;;
6251;SDS011;3159;52.414;9.784;2023-02-28T00:20:28;9.67;;;6.03;;
6251;SDS011;3159;52.414;9.784;2023-02-28T00:22:55;10.00;;;6.00;;
6251;SDS011;3159;52.414;9.784;2023-02-28T00:25:23;7.20;;;5.60;;
6251;SDS011;3159;52.414;9.784;2023-02-28T00:27:52;8.30;;;5.93;;
6251;SDS011;3159;52.414;9.784;2023-02-28T00:30:20;9.43;;;5.93;;
6251;SDS011;3159;52.414;9.784;2023-02-28T00:32:48;7.97;;;5.73;;
6251;SDS011;3159;52.414;9.784;2023-02-28T00:35:16;6.17;;;5.40;;
6251;SDS011;3159;52.414;9.784;2023-02-28T00:37:43;9.50;;;5.50;;
6251;SDS011;3159;52.414;9.784;2023-02-28T00:40:12;10.63;;;5.73;;
6251;SDS011;3159;52.414;9.784;2023-02-28T00:42:39;9.43;;;6.10;;
6251;SDS011;3159;52.414;9.784;2023-02-28T00:45:07;7.00;;;5.50;;
6251;SDS011;3159;52.414;9.784;2023-02-28T00:47:35;11.37;;;5.43;;
6251;SDS011;3159;52.414;9.784;2023-02-28T00:50:02;7.63;;;5.17;;
6251;SDS011;3159;52.414;9.784;2023-02-28T00:52:29;9.27;;;5.87;;
6251;SDS011;3159;52.414;9.784;2023-02-28T00:54:56;9.70;;;6.07;;
6251;SDS011;3159;52.414;9.784;2023-02-28T00:57:23;10.03;;;6.67;;
6251;SDS011;3159;52.414;9.784;2023-02-28T00:59:50;8.50;;;5.90;;
6251;SDS011;3159;52.414;9.784;2023-02-28T01:02:20;9.00;;;6.23;;
6251;SDS011;3159;52.414;9.784;2023-02-28T01:04:47;8.93;;;6.83;;
6251;SDS011;3159;52.414;9.784;2023-02-28T01:07:14;9.83;;;6.37;;
6251;SDS011;3159;52.414;9.784;2023-02-28T01:09:41;9.67;;;6.43;;
6251;SDS011;3159;52.414;9.784;2023-02-28T01:12:08;9.53;;;6.23;;
6251;SDS011;3159;52.414;9.784;2023-02-28T01:14:35;11.57;;;6.10;;
6251;SDS011;3159;52.414;9.784;2023-02-28T01:17:02;10.13;;;5.70;;
6251;SDS011;3159;52.414;9.784;2023-02-28T01:19:31;6.87;;;4.70;;
6251;SDS011;3159;52.414;9.784;2023-02-28T01:22:00;6.73;;;5.00;;
6251;SDS011;3159;52.414;9.784;2023-02-28T01:24:27;6.97;;;5.23;;
6251;SDS011;3159;52.414;9.784;2023-02-28T01:26:54;9.90;;;5.90;;
6251;SDS011;3159;52.414;9.784;2023-02-28T01:29:21;7.77;;;5.30;;
6251;SDS011;3159;52.414;9.784;2023-02-28T01:31:48;7.23;;;5.20;;
6251;SDS011;3159;52.414;9.784;2023-02-28T01:34:15;7.60;;;5.37;;
6251;SDS011;3159;52.414;9.784;2023-02-28T01:36:45;6.77;;;4.70;;
6251;SDS011;3159;52.414;9.784;2023-02-28T01:39:12;7.70;;;5.23;;
6251;SDS011;3159;52.414;9.784;2023-02-28T01:41:39;7.60;;;5.17;;
6251;SDS011;3159;52.414;9.784;2023-02-28T01:44:06;7.20;;;5.07;;
6251;SDS011;3159;52.414;9.784;2023-02-28T01:46:53;6.10;;;4.93;;
6251;SDS011;3159;52.414;9.784;2023-02-28T01:49:20;6.80;;;4.37;;
6251;SDS011;3159;52.414;9.784;2023-02-28T01:51:49;5.77;;;4.73;;
6251;SDS011;3159;52.414;9.784;2023-02-28T01:54:18;6.47;;;4.87;;
6251;SDS011;3159;52.414;9.784;2023-02-28T01:56:51;8.50;;;5.13;;
6251;SDS011;3159;52.414;9.784;2023-02-28T01:59:22;7.20;;;4.87;;
6251;SDS011;3159;52.414;9.784;2023-02-28T02:01:52;7.53;;;4.80;;
6251;SDS011;3159;52.414;9.784;2023-02-28T02:04:20;7.73;;;5.00;;
6251;SDS011;3159;52.414;9.784;2023-02-28T02:06:51;8.07;;;5.10;;
6251;SDS011;3159;52.414;9.784;2023-02-28T02:09:18;6.03;;;4.50;;
6251;SDS011;3159;52.414;9.784;2023-02-28T02:11:45;6.83;;;4.80;;
6251;SDS011;3159;52.414;9.784;2023-02-28T02:14:26;8.20;;;4.57;;
6251;SDS011;3159;52.414;9.784;2023-02-28T02:17:05;7.17;;;4.90;;
6251;SDS011;3159;52.414;9.784;2023-02-28T02:19:53;7.00;;;4.63;;
6251;SDS011;3159;52.414;9.784;2023-02-28T02:22:46;6.40;;;4.53;;
6251;SDS011;3159;52.414;9.784;2023-02-28T02:25:39;6.97;;;4.70;;
6251;SDS011;3159;52.414;9.784;2023-02-28T02:37:21;6.73;;;4.80;;
6251;SDS011;3159;52.414;9.784;2023-02-28T02:39:54;7.83;;;4.30;;
6251;SDS011;3159;52.414;9.784;2023-02-28T02:42:29;7.53;;;5.33;;
6251;SDS011;3159;52.414;9.784;2023-02-28T02:45:02;6.73;;;4.40;;
6251;SDS011;3159;52.414;9.784;2023-02-28T02:47:33;7.77;;;4.80;;
6251;SDS011;3159;52.414;9.784;2023-02-28T02:50:04;7.80;;;4.40;;
6251;SDS011;3159;52.414;9.784;2023-02-28T02:52:36;5.80;;;4.30;;
6251;SDS011;3159;52.414;9.784;2023-02-28T02:55:09;6.13;;;4.73;;
6251;SDS011;3159;52.414;9.784;2023-02-28T02:57:40;8.73;;;4.80;;
6251;SDS011;3159;52.414;9.784;2023-02-28T03:00:13;5.17;;;4.60;;
6251;SDS011;3159;52.414;9.784;2023-02-28T03:02:43;6.93;;;5.23;;
6251;SDS011;3159;52.414;9.784;2023-02-28T03:05:14;7.97;;;5.10;;
6251;SDS011;3159;52.414;9.784;2023-02-28T03:07:45;5.50;;;4.57;;
6251;SDS011;3159;52.414;9.784;2023-02-28T03:10:26;6.37;;;4.80;;
6251;SDS011;3159;52.414;9.784;2023-02-28T03:12:57;8.30;;;4.93;;
6251;SDS011;3159;52.414;9.784;2023-02-28T03:15:36;5.30;;;4.30;;
6251;SDS011;3159;52.414;9.784;2023-02-28T03:18:15;7.27;;;4.90;;
6251;SDS011;3159;52.414;9.784;2023-02-28T03:20:53;7.80;;;4.83;;
6251;SDS011;3159;52.414;9.784;2023-02-28T03:23:31;8.33;;;4.87;;
6251;SDS011;3159;52.414;9.784;2023-02-28T03:26:11;7.70;;;5.10;;
6251;SDS011;3159;52.414;9.784;2023-02-28T03:28:47;8.20;;;5.43;;
6251;SDS011;3159;52.414;9.784;2023-02-28T03:31:19;5.80;;;4.97;;
6251;SDS011;3159;52.414;9.784;2023-02-28T03:33:49;9.47;;;5.17;;
6251;SDS011;3159;52.414;9.784;2023-02-28T03:36:24;9.47;;;5.10;;
6251;SDS011;3159;52.414;9.784;2023-02-28T03:38:54;7.60;;;5.30;;
6251;SDS011;3159;52.414;9.784;2023-02-28T03:41:27;6.40;;;4.90;;
6251;SDS011;3159;52.414;9.784;2023-02-28T03:44:00;6.13;;;4.93;;
6251;SDS011;3159;52.414;9.784;2023-02-28T03:46:33;8.03;;;5.60;;
6251;SDS011;3159;52.414;9.784;2023-02-28T03:49:03;6.17;;;4.97;;
6251;SDS011;3159;52.414;9.784;2023-02-28T03:51:36;7.97;;;4.53;;
6251;SDS011;3159;52.414;9.784;2023-02-28T03:54:06;6.67;;;4.90;;
6251;SDS011;3159;52.414;9.784;2023-02-28T03:56:37;7.73;;;5.50;;
6251;SDS011;3159;52.414;9.784;2023-02-28T03:59:08;7.30;;;4.87;;
6251;SDS011;3159;52.414;9.784;2023-02-28T04:01:40;6.50;;;4.97;;
6251;SDS011;3159;52.414;9.784;2023-02-28T04:04:08;7.10;;;4.80;;
6251;SDS011;3159;52.414;9.784;2023-02-28T04:06:38;7.03;;;5.37;;
6251;SDS011;3159;52.414;9.784;2023-02-28T04:09:08;6.43;;;4.67;;
6251;SDS011;3159;52.414;9.784;2023-02-28T04:11:36;8.83;;;5.67;;
6251;SDS011;3159;52.414;9.784;2023-02-28T04:14:05;6.03;;;5.10;;
6251;SDS011;3159;52.414;9.784;2023-02-28T04:16:33;5.60;;;5.10;;
6251;SDS011;3159;52.414;9.784;2023-02-28T04:19:02;6.60;;;5.30;;
6251;SDS011;3159;52.414;9.784;2023-02-28T04:21:30;7.07;;;5.40;;
6251;SDS011;3159;52.414;9.784;2023-02-28T04:24:00;9.60;;;5.57;;
6251;SDS011;3159;52.414;9.784;2023-02-28T04:26:28;7.37;;;4.57;;
6251;SDS011;3159;52.414;9.784;2023-02-28T04:28:55;7.83;;;5.47;;
6251;SDS011;3159;52.414;9.784;2023-02-28T04:31:22;5.90;;;4.90;;
6251;SDS011;3159;52.414;9.784;2023-02-28T04:33:49;9.00;;;5.87;;
6251;SDS011;3159;52.414;9.784;2023-02-28T04:36:16;7.10;;;5.10;;
6251;SDS011;3159;52.414;9.784;2023-02-28T04:38:44;9.00;;;5.93;;
6251;SDS011;3159;52.414;9.784;2023-02-28T04:41:13;7.17;;;5.03;;
6251;SDS011;3159;52.414;9.784;2023-02-28T04:43:39;6.60;;;4.87;;
6251;SDS011;3159;52.414;9.784;2023-02-28T04:46:06;9.33;;;4.70;;
6251;SDS011;3159;52.414;9.784;2023-02-28T04:48:34;5.23;;;4.70;;
6251;SDS011;3159;52.414;9.784;2023-02-28T04:51:03;7.50;;;5.13;;
6251;SDS011;3159;52.414;9.784;2023-02-28T04:53:31;7.23;;;5.17;;
6251;SDS011;3159;52.414;9.784;2023-02-28T04:55:58;6.10;;;5.10;;
6251;SDS011;3159;52.414;9.784;2023-02-28T04:58:27;6.63;;;4.80;;
6251;SDS011;3159;52.414;9.784;2023-02-28T05:00:56;8.93;;;5.67;;
6251;SDS011;3159;52.414;9.784;2023-02-28T05:03:28;6.73;;;5.00;;
6251;SDS011;3159;52.414;9.784;2023-02-28T05:05:55;8.67;;;4.87;;
6251;SDS011;3159;52.414;9.784;2023-02-28T05:08:21;5.77;;;4.93;;
6251;SDS011;3159;52.414;9.784;2023-02-28T05:10:48;7.53;;;5.27;;
6251;SDS011;3159;52.414;9.784;2023-02-28T05:13:15;8.83;;;5.33;;
6251;SDS011;3159;52.414;9.784;2023-02-28T05:15:43;5.63;;;5.03;;
6251;SDS011;3159;52.414;9.784;2023-02-28T05:18:10;7.40;;;5.43;;
6251;SDS011;3159;52.414;9.784;2023-02-28T05:20:37;8.10;;;4.87;;
6251;SDS011;3159;52.414;9.784;2023-02-28T05:23:03;7.13;;;5.13;;
6251;SDS011;3159;52.414;9.784;2023-02-28T05:25:30;8.40;;;5.53;;
6251;SDS011;3159;52.414;9.784;2023-02-28T05:27:57;6.33;;;5.00;;
6251;SDS011;3159;52.414;9.784;2023-02-28T05:30:24;10.40;;;5.77;;
6251;SDS011;3159;52.414;9.784;2023-02-28T05:32:52;9.57;;;4.80;;
6251;SDS011;3159;52.414;9.784;2023-02-28T05:35:19;9.03;;;5.20;;
6251;SDS011;3159;52.414;9.784;2023-02-28T05:37:45;6.40;;;5.03;;
6251;SDS011;3159;52.414;9.784;2023-02-28T05:40:12;9.00;;;5.23;;
6251;SDS011;3159;52.414;9.784;2023-02-28T05:42:40;5.83;;;5.17;;
6251;SDS011;3159;52.414;9.784;2023-02-28T05:45:07;7.03;;;5.47;;
6251;SDS011;3159;52.414;9.784;2023-02-28T05:47:35;8.57;;;5.30;;
6251;SDS011;3159;52.414;9.784;2023-02-28T05:50:03;9.27;;;5.30;;
6251;SDS011;3159;52.414;9.784;2023-02-28T05:52:31;7.20;;;4.93;;
6251;SDS011;3159;52.414;9.784;2023-02-28T05:54:58;8.57;;;5.10;;
6251;SDS011;3159;52.414;9.784;2023-02-28T05:57:25;8.43;;;5.40;;
6251;SDS011;3159;52.414;9.784;2023-02-28T05:59:52;10.37;;;5.83;;
6251;SDS011;3159;52.414;9.784;2023-02-28T06:02:19;9.63;;;6.57;;
6251;SDS011;3159;52.414;9.784;2023-02-28T06:04:46;8.80;;;5.97;;
6251;SDS011;3159;52.414;9.784;2023-02-28T06:07:14;8.40;;;5.90;;
6251;SDS011;3159;52.414;9.784;2023-02-28T06:09:42;7.70;;;6.00;;
6251;SDS011;3159;52.414;9.784;2023-02-28T06:12:09;8.07;;;6.10;;
6251;SDS011;3159;52.414;9.784;2023-02-28T06:14:36;7.80;;;5.67;;
6251;SDS011;3159;52.414;9.784;2023-02-28T06:17:03;8.50;;;6.00;;
6251;SDS011;3159;52.414;9.784;2023-02-28T06:19:30;9.40;;;6.40;;
6251;SDS011;3159;52.414;9.784;2023-02-28T06:21:57;6.63;;;5.50;;
6251;SDS011;3159;52.414;9.784;2023-02-28T06:24:26;9.17;;;5.57;;
6251;SDS011;3159;52.414;9.784;2023-02-28T06:26:54;9.97;;;6.23;;
6251;SDS011;3159;52.414;9.784;2023-02-28T06:29:21;7.17;;;5.80;;
6251;SDS011;3159;52.414;9.784;2023-02-28T06:31:48;7.83;;;5.63;;
6251;SDS011;3159;52.414;9.784;2023-02-28T06:34:15;8.30;;;5.83;;
6251;SDS011;3159;52.414;9.784;2023-02-28T06:36:41;7.30;;;6.23;;
6251;SDS011;3159;52.414;9.784;2023-02-28T06:39:09;7.50;;;5.63;;
6251;SDS011;3159;52.414;9.784;2023-02-28T06:41:37;9.13;;;5.60;;
6251;SDS011;3159;52.414;9.784;2023-02-28T06:44:05;7.20;;;5.73;;
6251;SDS011;3159;52.414;9.784;2023-02-28T06:46:33;8.47;;;6.13;;
6251;SDS011;3159;52.414;9.784;2023-02-28T06:49:00;8.33;;;6.10;;
6251;SDS011;3159;52.414;9.784;2023-02-28T06:51:27;13.57;;;6.60;;
6251;SDS011;3159;52.414;9.784;2023-02-28T06:53:54;9.90;;;7.10;;
6251;SDS011;3159;52.414;9.784;2023-02-28T06:56:21;12.63;;;7.30;;
6251;SDS011;3159;52.414;9.784;2023-02-28T06:58:49;11.10;;;6.90;;
6251;SDS011;3159;52.414;9.784;2023-02-28T07:01:17;9.30;;;6.27;;
6251;SDS011;3159;52.414;9.784;2023-02-28T07:03:45;10.83;;;6.90;;
6251;SDS011;3159;52.414;9.784;2023-02-28T07:06:17;8.83;;;6.43;;
6251;SDS011;3159;52.414;9.784;2023-02-28T07:08:44;10.77;;;6.20;;
6251;SDS011;3159;52.414;9.784;2023-02-28T07:11:11;10.30;;;6.67;;
6251;SDS011;3159;52.414;9.784;2023-02-28T07:13:38;11.83;;;6.13;;
6251;SDS011;3159;52.414;9.784;2023-02-28T07:16:07;7.97;;;6.23;;
6251;SDS011;3159;52.414;9.784;2023-02-28T07:18:36;11.00;;;6.17;;
6251;SDS011;3159;52.414;9.784;2023-02-28T07:21:03;9.13;;;6.00;;
6251;SDS011;3159;52.414;9.784;2023-02-28T07:23:32;9.40;;;6.40;;
6251;SDS011;3159;52.414;9.784;2023-02-28T07:25:58;10.13;;;6.60;;
6251;SDS011;3159;52.414;9.784;2023-02-28T07:28:25;11.47;;;6.87;;
6251;SDS011;3159;52.414;9.784;2023-02-28T07:30:53;10.67;;;6.43;;
6251;SDS011;3159;52.414;9.784;2023-02-28T07:33:21;7.87;;;5.80;;
6251;SDS011;3159;52.414;9.784;2023-02-28T07:35:48;10.40;;;6.60;;
6251;SDS011;3159;52.414;9.784;2023-02-28T07:38:15;9.27;;;5.90;;
6251;SDS011;3159;52.414;9.784;2023-02-28T07:40:42;8.53;;;5.73;;
6251;SDS011;3159;52.414;9.784;2023-02-28T07:43:09;11.20;;;6.53;;
6251;SDS011;3159;52.414;9.784;2023-02-28T07:45:35;9.43;;;6.53;;
6251;SDS011;3159;52.414;9.784;2023-02-28T07:48:02;12.60;;;6.80;;
6251;SDS011;3159;52.414;9.784;2023-02-28T07:50:31;8.50;;;6.60;;
6251;SDS011;3159;52.414;9.784;2023-02-28T07:52:57;16.63;;;6.60;;
6251;SDS011;3159;52.414;9.784;2023-02-28T07:55:24;10.23;;;6.40;;
6251;SDS011;3159;52.414;9.784;2023-02-28T07:57:51;9.27;;;6.03;;
6251;SDS011;3159;52.414;9.784;2023-02-28T08:00:18;8.10;;;6.07;;
6251;SDS011;3159;52.414;9.784;2023-02-28T08:02:45;10.90;;;6.27;;
6251;SDS011;3159;52.414;9.784;2023-02-28T08:05:12;7.80;;;5.57;;
6251;SDS011;3159;52.414;9.784;2023-02-28T08:07:40;8.90;;;5.93;;
6251;SDS011;3159;52.414;9.784;2023-02-28T08:10:07;10.10;;;6.57;;
6251;SDS011;3159;52.414;9.784;2023-02-28T08:12:35;9.27;;;5.47;;
6251;SDS011;3159;52.414;9.784;2023-02-28T08:15:02;10.60;;;5.77;;
6251;SDS011;3159;52.414;9.784;2023-02-28T08:17:29;9.13;;;5.33;;
6251;SDS011;3159;52.414;9.784;2023-02-28T08:19:56;7.80;;;5.33;;
6251;SDS011;3159;52.414;9.784;2023-02-28T08:22:23;6.27;;;4.80;;
6251;SDS011;3159;52.414;9.784;2023-02-28T08:24:51;5.47;;;4.70;;
6251;SDS011;3159;52.414;9.784;2023-02-28T08:27:17;5.77;;;4.70;;
6251;SDS011;3159;52.414;9.784;2023-02-28T08:29:44;6.97;;;4.90;;
6251;SDS011;3159;52.414;9.784;2023-02-28T08:32:11;5.40;;;4.17;;
6251;SDS011;3159;52.414;9.784;2023-02-28T08:34:38;6.27;;;4.00;;
6251;SDS011;3159;52.414;9.784;2023-02-28T08:37:06;7.20;;;4.37;;
6251;SDS011;3159;52.414;9.784;2023-02-28T08:39:33;6.33;;;4.50;;
6251;SDS011;3159;52.414;9.784;2023-02-28T08:42:02;6.57;;;4.27;;
6251;SDS011;3159;52.414;9.784;2023-02-28T08:44:29;7.47;;;4.37;;
6251;SDS011;3159;52.414;9.784;2023-02-28T08:46:56;6.53;;;4.83;;
6251;SDS011;3159;52.414;9.784;2023-02-28T08:49:22;7.53;;;4.50;;
6251;SDS011;3159;52.414;9.784;2023-02-28T08:51:49;6.63;;;4.53;;
6251;SDS011;3159;52.414;9.784;2023-02-28T08:54:16;6.00;;;3.83;;
6251;SDS011;3159;52.414;9.784;2023-02-28T08:56:44;4.53;;;3.37;;
6251;SDS011;3159;52.414;9.784;2023-02-28T08:59:13;4.73;;;3.83;;
6251;SDS011;3159;52.414;9.784;2023-02-28T09:01:40;4.80;;;3.70;;
6251;SDS011;3159;52.414;9.784;2023-02-28T09:04:08;6.83;;;3.47;;
6251;SDS011;3159;52.414;9.784;2023-02-28T09:06:36;5.37;;;3.80;;
6251;SDS011;3159;52.414;9.784;2023-02-28T09:09:03;3.90;;;3.60;;
6251;SDS011;3159;52.414;9.784;2023-02-28T09:11:32;7.03;;;4.00;;
6251;SDS011;3159;52.414;9.784;2023-02-28T09:13:59;6.17;;;3.70;;
6251;SDS011;3159;52.414;9.784;2023-02-28T09:16:30;5.67;;;3.60;;
6251;SDS011;3159;52.414;9.784;2023-02-28T09:18:58;4.87;;;2.73;;
6251;SDS011;3159;52.414;9.784;2023-02-28T09:21:25;3.93;;;3.00;;
6251;SDS011;3159;52.414;9.784;2023-02-28T09:23:52;3.50;;;2.63;;
6251;SDS011;3159;52.414;9.784;2023-02-28T09:26:19;2.87;;;2.20;;
6251;SDS011;3159;52.414;9.784;2023-02-28T09:28:48;5.77;;;2.40;;
6251;SDS011;3159;52.414;9.784;2023-02-28T09:31:16;3.43;;;2.30;;
6251;SDS011;3159;52.414;9.784;2023-02-28T09:33:47;4.23;;;2.30;;
6251;SDS011;3159;52.414;9.784;2023-02-28T09:36:14;6.00;;;1.97;;
6251;SDS011;3159;52.414;9.784;2023-02-28T09:38:41;4.03;;;2.93;;
6251;SDS011;3159;52.414;9.784;2023-02-28T09:41:10;3.67;;;2.40;;
6251;SDS011;3159;52.414;9.784;2023-02-28T09:43:40;3.67;;;2.57;;
6251;SDS011;3159;52.414;9.784;2023-02-28T09:46:12;3.77;;;2.40;;
6251;SDS011;3159;52.414;9.784;2023-02-28T09:48:48;4.23;;;2.93;;
6251;SDS011;3159;52.414;9.784;2023-02-28T09:51:23;3.00;;;2.30;;
6251;SDS011;3159;52.414;9.784;2023-02-28T09:53:56;4.47;;;2.23;;
6251;SDS011;3159;52.414;9.784;2023-02-28T09:56:24;3.33;;;2.20;;
6251;SDS011;3159;52.414;9.784;2023-02-28T09:58:56;4.40;;;2.27;;
6251;SDS011;3159;52.414;9.784;2023-02-28T10:01:27;1.80;;;1.70;;
6251;SDS011;3159;52.414;9.784;2023-02-28T10:04:03;5.70;;;3.30;;
6251;SDS011;3159;52.414;9.784;2023-02-28T10:06:35;2.10;;;1.87;;
6251;SDS011;3159;52.414;9.784;2023-02-28T10:09:08;2.97;;;1.93;;
6251;SDS011;3159;52.414;9.784;2023-02-28T10:11:40;4.30;;;2.20;;
6251;SDS011;3159;52.414;9.784;2023-02-28T10:14:10;3.70;;;1.90;;
6251;SDS011;3159;52.414;9.784;2023-02-28T10:16:42;2.60;;;2.10;;
6251;SDS011;3159;52.414;9.784;2023-02-28T10:19:19;3.03;;;1.90;;
6251;SDS011;3159;52.414;9.784;2023-02-28T10:21:49;2.93;;;1.90;;
6251;SDS011;3159;52.414;9.784;2023-02-28T10:24:23;5.07;;;2.23;;
6251;SDS011;3159;52.414;9.784;2023-02-28T10:26:56;3.37;;;2.33;;
6251;SDS011;3159;52.414;9.784;2023-02-28T10:29:27;4.23;;;2.43;;
6251;SDS011;3159;52.414;9.784;2023-02-28T10:31:57;2.70;;;1.97;;
6251;SDS011;3159;52.414;9.784;2023-02-28T10:34:28;3.53;;;2.00;;
6251;SDS011;3159;52.414;9.784;2023-02-28T10:36:55;2.73;;;2.07;;
6251;SDS011;3159;52.414;9.784;2023-02-28T10:39:36;2.30;;;1.50;;
6251;SDS011;3159;52.414;9.784;2023-02-28T10:42:05;2.43;;;1.80;;
6251;SDS011;3159;52.414;9.784;2023-02-28T10:45:03;2.97;;;2.40;;
6251;SDS011;3159;52.414;9.784;2023-02-28T10:47:32;3.70;;;1.90;;
6251;SDS011;3159;52.414;9.784;2023-02-28T10:50:03;5.40;;;2.57;;
6251;SDS011;3159;52.414;9.784;2023-02-28T10:52:33;2.23;;;1.60;;
6251;SDS011;3159;52.414;9.784;2023-02-28T10:55:18;1.93;;;1.30;;
6251;SDS011;3159;52.414;9.784;2023-02-28T10:57:48;1.93;;;1.57;;
6251;SDS011;3159;52.414;9.784;2023-02-28T11:00:17;1.70;;;1.43;;
6251;SDS011;3159;52.414;9.784;2023-02-28T11:02:46;1.77;;;1.53;;
6251;SDS011;3159;52.414;9.784;2023-02-28T11:05:28;3.90;;;1.87;;
6251;SDS011;3159;52.414;9.784;2023-02-28T11:07:57;4.37;;;2.00;;
6251;SDS011;3159;52.414;9.784;2023-02-28T11:10:30;2.53;;;1.53;;
6251;SDS011;3159;52.414;9.784;2023-02-28T11:12:59;2.60;;;1.50;;
6251;SDS011;3159;52.414;9.784;2023-02-28T11:15:27;1.60;;;1.50;;
6251;SDS011;3159;52.414;9.784;2023-02-28T11:17:56;2.10;;;1.47;;
6251;SDS011;3159;52.414;9.784;2023-02-28T11:20:25;2.47;;;1.53;;
6251;SDS011;3159;52.414;9.784;2023-02-28T11:22:55;1.60;;;1.43;;
6251;SDS011;3159;52.414;9.784;2023-02-28T11:25:24;2.33;;;1.60;;
6251;SDS011;3159;52.414;9.784;2023-02-28T11:27:53;2.30;;;1.47;;
6251;SDS011;3159;52.414;9.784;2023-02-28T11:30:24;2.20;;;1.30;;
6251;SDS011;3159;52.414;9.784;2023-02-28T11:33:00;1.47;;;1.07;;
6251;SDS011;3159;52.414;9.784;2023-02-28T11:35:30;1.77;;;1.50;;
6251;SDS011;3159;52.414;9.784;2023-02-28T11:38:00;2.83;;;1.10;;
6251;SDS011;3159;52.414;9.784;2023-02-28T11:40:30;1.90;;;1.13;;
6251;SDS011;3159;52.414;9.784;2023-02-28T11:43:06;4.07;;;1.40;;
6251;SDS011;3159;52.414;9.784;2023-02-28T11:45:45;1.10;;;1.00;;
6251;SDS011;3159;52.414;9.784;2023-02-28T11:48:27;2.53;;;1.20;;
6251;SDS011;3159;52.414;9.784;2023-02-28T11:51:03;1.50;;;1.20;;
6251;SDS011;3159;52.414;9.784;2023-02-28T11:53:43;2.47;;;1.30;;
6251;SDS011;3159;52.414;9.784;2023-02-28T11:56:23;1.57;;;1.30;;
6251;SDS011;3159;52.414;9.784;2023-02-28T11:58:57;1.77;;;1.47;;
6251;SDS011;3159;52.414;9.784;2023-02-28T12:01:33;3.10;;;1.60;;
6251;SDS011;3159;52.414;9.784;2023-02-28T12:04:11;1.73;;;1.20;;
6251;SDS011;3159;52.414;9.784;2023-02-28T12:06:53;2.77;;;1.40;;
6251;SDS011;3159;52.414;9.784;2023-02-28T12:09:30;2.50;;;1.40;;
6251;SDS011;3159;52.414;9.784;2023-02-28T12:12:07;1.87;;;1.33;;
6251;SDS011;3159;52.414;9.784;2023-02-28T12:14:47;3.80;;;1.50;;
6251;SDS011;3159;52.414;9.784;2023-02-28T12:17:32;1.77;;;1.60;;
6251;SDS011;3159;52.414;9.784;2023-02-28T12:20:13;2.33;;;1.30;;
6251;SDS011;3159;52.414;9.784;2023-02-28T12:22:52;3.17;;;1.83;;
6251;SDS011;3159;52.414;9.784;2023-02-28T12:25:38;2.13;;;1.30;;
6251;SDS011;3159;52.414;9.784;2023-02-28T12:28:16;2.83;;;1.80;;
6251;SDS011;3159;52.414;9.784;2023-02-28T12:30:50;3.00;;;1.30;;
6251;SDS011;3159;52.414;9.784;2023-02-28T12:33:24;1.80;;;1.20;;
6251;SDS011;3159;52.414;9.784;2023-02-28T12:35:58;2.73;;;1.60;;
6251;SDS011;3159;52.414;9.784;2023-02-28T12:38:29;2.47;;;1.70;;
6251;SDS011;3159;52.414;9.784;2023-02-28T12:41:00;3.90;;;2.10;;
6251;SDS011;3159;52.414;9.784;2023-02-28T12:43:33;2.17;;;1.40;;
6251;SDS011;3159;52.414;9.784;2023-02-28T12:46:04;2.60;;;1.80;;
6251;SDS011;3159;52.414;9.784;2023-02-28T12:48:37;3.33;;;1.90;;
6251;SDS011;3159;52.414;9.784;2023-02-28T12:51:07;3.80;;;1.83;;
6251;SDS011;3159;52.414;9.784;2023-02-28T12:53:38;1.93;;;1.73;;
6251;SDS011;3159;52.414;9.784;2023-02-28T12:56:20;2.90;;;2.10;;
6251;SDS011;3159;52.414;9.784;2023-02-28T12:58:56;5.23;;;1.70;;
6251;SDS011;3159;52.414;9.784;2023-02-28T13:01:33;3.57;;;1.90;;
6251;SDS011;3159;52.414;9.784;2023-02-28T13:04:15;2.20;;;2.00;;
6251;SDS011;3159;52.414;9.784;2023-02-28T13:07:00;2.20;;;1.80;;
6251;SDS011;3159;52.414;9.784;2023-02-28T13:09:41;3.63;;;1.90;;
6251;SDS011;3159;52.414;9.784;2023-02-28T13:12:19;3.70;;;2.00;;
6251;SDS011;3159;52.414;9.784;2023-02-28T13:14:48;3.30;;;1.97;;
6251;SDS011;3159;52.414;9.784;2023-02-28T13:17:17;7.27;;;2.87;;
6251;SDS011;3159;52.414;9.784;2023-02-28T13:19:46;5.30;;;2.87;;
6251;SDS011;3159;52.414;9.784;2023-02-28T13:31:33;5.03;;;2.27;;
6251;SDS011;3159;52.414;9.784;2023-02-28T13:34:40;3.30;;;2.07;;
6251;SDS011;3159;52.414;9.784;2023-02-28T13:37:33;2.03;;;1.83;;
6251;SDS011;3159;52.414;9.784;2023-02-28T13:43:01;3.07;;;2.27;;
6251;SDS011;3159;52.414;9.784;2023-02-28T13:45:30;2.40;;;1.60;;
6251;SDS011;3159;52.414;9.784;2023-02-28T13:48:03;2.80;;;1.83;;
6251;SDS011;3159;52.414;9.784;2023-02-28T13:50:42;3.97;;;2.90;;
6251;SDS011;3159;52.414;9.784;2023-02-28T13:56:21;3.67;;;1.80;;
6251;SDS011;3159;52.414;9.784;2023-02-28T13:59:01;3.33;;;1.90;;
6251;SDS011;3159;52.414;9.784;2023-02-28T14:01:48;1.90;;;1.70;;
6251;SDS011;3159;52.414;9.784;2023-02-28T14:07:27;3.53;;;2.33;;
6251;SDS011;3159;52.414;9.784;2023-02-28T14:09:59;2.53;;;2.20;;
6251;SDS011;3159;52.414;9.784;2023-02-28T14:15:28;2.90;;;2.17;;
6251;SDS011;3159;52.414;9.784;2023-02-28T14:18:14;4.20;;;2.30;;
6251;SDS011;3159;52.414;9.784;2023-02-28T14:20:45;3.30;;;2.07;;
6251;SDS011;3159;52.414;9.784;2023-02-28T14:23:16;2.77;;;2.17;;
6251;SDS011;3159;52.414;9.784;2023-02-28T14:25:54;1.97;;;1.47;;
6251;SDS011;3159;52.414;9.784;2023-02-28T14:28:50;2.50;;;1.70;;
6251;SDS011;3159;52.414;9.784;2023-02-28T14:38:23;3.90;;;1.80;;
6251;SDS011;3159;52.414;9.784;2023-02-28T14:41:51;2.20;;;2.00;;
6251;SDS011;3159;52.414;9.784;2023-02-28T14:44:54;2.70;;;2.10;;
6251;SDS011;3159;52.414;9.784;2023-02-28T14:47:27;3.47;;;2.30;;
6251;SDS011;3159;52.414;9.784;2023-02-28T14:49:58;2.87;;;2.00;;
6251;SDS011;3159;52.414;9.784;2023-02-28T14:52:34;2.57;;;1.70;;
6251;SDS011;3159;52.414;9.784;2023-02-28T14:55:03;3.73;;;2.40;;
6251;SDS011;3159;52.414;9.784;2023-02-28T14:57:42;3.40;;;2.40;;
6251;SDS011;3159;52.414;9.784;2023-02-28T15:00:24;2.73;;;2.53;;
6251;SDS011;3159;52.414;9.784;2023-02-28T15:02:58;3.50;;;2.80;;
6251;SDS011;3159;52.414;9.784;2023-02-28T15:05:31;4.90;;;2.70;;
6251;SDS011;3159;52.414;9.784;2023-02-28T15:08:09;4.33;;;2.30;;
6251;SDS011;3159;52.414;9.784;2023-02-28T15:10:39;4.17;;;2.23;;
6251;SDS011;3159;52.414;9.784;2023-02-28T15:13:11;4.67;;;2.87;;
6251;SDS011;3159;52.414;9.784;2023-02-28T15:15:43;2.47;;;1.97;;
6251;SDS011;3159;52.414;9.784;2023-02-28T15:18:26;3.10;;;1.93;;
6251;SDS011;3159;52.414;9.784;2023-02-28T15:24:12;4.00;;;2.07;;
6251;SDS011;3159;52.414;9.784;2023-02-28T15:26:50;5.13;;;1.97;;
6251;SDS011;3159;52.414;9.784;2023-02-28T15:29:26;3.27;;;2.20;;
6251;SDS011;3159;52.414;9.784;2023-02-28T15:32:05;2.80;;;1.90;;
6251;SDS011;3159;52.414;9.784;2023-02-28T15:37:32;3.30;;;2.17;;
6251;SDS011;3159;52.414;9.784;2023-02-28T15:40:07;2.17;;;1.90;;
6251;SDS011;3159;52.414;9.784;2023-02-28T15:42:39;2.97;;;2.20;;
6251;SDS011;3159;52.414;9.784;2023-02-28T15:48:01;4.10;;;2.43;;
6251;SDS011;3159;52.414;9.784;2023-02-28T15:50:28;2.77;;;2.10;;
6251;SDS011;3159;52.414;9.784;2023-02-28T15:52:55;4.47;;;2.50;;
6251;SDS011;3159;52.414;9.784;2023-02-28T15:55:23;3.47;;;2.23;;
6251;SDS011;3159;52.414;9.784;2023-02-28T15:57:53;5.40;;;2.60;;
6251;SDS011;3159;52.414;9.784;2023-02-28T16:00:25;3.13;;;2.60;;
6251;SDS011;3159;52.414;9.784;2023-02-28T16:02:53;3.47;;;2.27;;
6251;SDS011;3159;52.414;9.784;2023-02-28T16:05:22;6.13;;;3.00;;
6251;SDS011;3159;52.414;9.784;2023-02-28T16:07:55;3.97;;;2.67;;
6251;SDS011;3159;52.414;9.784;2023-02-28T16:10:23;3.40;;;2.23;;
6251;SDS011;3159;52.414;9.784;2023-02-28T16:12:52;4.27;;;3.07;;
6251;SDS011;3159;52.414;9.784;2023-02-28T16:15:21;4.60;;;2.23;;
6251;SDS011;3159;52.414;9.784;2023-02-28T16:17:51;5.97;;;2.80;;
6251;SDS011;3159;52.414;9.784;2023-02-28T16:20:19;5.10;;;3.00;;
6251;SDS011;3159;52.414;9.784;2023-02-28T16:22:48;4.67;;;2.40;;
6251;SDS011;3159;52.414;9.784;2023-02-28T16:25:16;4.47;;;2.20;;